sensor_id;sensor_type;location;lat;lon;timestamp;pressure;altitude;pressure_sealevel;temperature;humidity
60676;BME280;46716;38.014;-7.874;2022-12-07T00:01:19;99843.53;;;9.04;100.00
60676;BME280;46716;38.014;-7.874;2022-12-07T00:03:20;99864.44;;;9.09;100.00
60676;BME280;46716;38.014;-7.874;2022-12-07T00:05:21;99857.69;;;9.02;100.00
60676;BME280;46716;38.014;-7.874;2022-12-07T00:07:22;99853.44;;;8.97;100.00
60676;BME280;46716;38.014;-7.874;2022-12-07T00:09:23;99861.03;;;9.05;100.00
60676;BME280;46716;38.014;-7.874;2022-12-07T00:11:25;99849.16;;;8.95;100.00
60676;BME280;46716;38.014;-7.874;2022-12-07T00:13:25;99846.53;;;8.95;100.00
60676;BME280;46716;38.014;-7.874;2022-12-07T00:15:28;99854.50;;;8.93;100.00
60676;BME280;46716;38.014;-7.874;2022-12-07T00:17:28;99849.47;;;8.87;100.00
60676;BME280;46716;38.014;-7.874;2022-12-07T00:19:30;99848.06;;;8.78;100.00
60676;BME280;46716;38.014;-7.874;2022-12-07T00:21:33;99848.81;;;8.82;100.00
60676;BME280;46716;38.014;-7.874;2022-12-07T00:23:34;99841.63;;;8.85;100.00
60676;BME280;46716;38.014;-7.874;2022-12-07T00:25:35;99839.19;;;9.03;100.00
60676;BME280;46716;38.014;-7.874;2022-12-07T00:27:36;99838.88;;;9.11;100.00
60676;BME280;46716;38.014;-7.874;2022-12-07T00:29:36;99841.63;;;9.08;100.00
60676;BME280;46716;38.014;-7.874;2022-12-07T00:31:37;99831.31;;;9.03;100.00
60676;BME280;46716;38.014;-7.874;2022-12-07T00:33:39;99823.78;;;8.94;100.00
60676;BME280;46716;38.014;-7.874;2022-12-07T00:35:40;99819.00;;;8.81;100.00
60676;BME280;46716;38.014;-7.874;2022-12-07T00:37:41;99808.69;;;8.75;100.00
60676;BME280;46716;38.014;-7.874;2022-12-07T00:39:42;99826.53;;;8.91;100.00
60676;BME280;46716;38.014;-7.874;2022-12-07T00:41:43;99827.69;;;8.83;100.00
60676;BME280;46716;38.014;-7.874;2022-12-07T00:43:46;99806.00;;;8.77;100.00
60676;BME280;46716;38.014;-7.874;2022-12-07T00:45:47;99818.88;;;8.84;100.00
60676;BME280;46716;38.014;-7.874;2022-12-07T00:47:48;99810.31;;;8.79;100.00
60676;BME280;46716;38.014;-7.874;2022-12-07T00:49:49;99799.78;;;8.79;100.00
60676;BME280;46716;38.014;-7.874;2022-12-07T00:51:50;99799.72;;;8.81;100.00
60676;BME280;46716;38.014;-7.874;2022-12-07T00:53:51;99805.75;;;8.83;100.00
60676;BME280;46716;38.014;-7.874;2022-12-07T00:55:53;99803.31;;;8.78;100.00
60676;BME280;46716;38.014;-7.874;2022-12-07T00:57:54;99815.31;;;8.85;100.00
60676;BME280;46716;38.014;-7.874;2022-12-07T00:59:55;99798.97;;;8.77;100.00
60676;BME280;46716;38.014;-7.874;2022-12-07T01:01:58;99783.38;;;8.72;100.00
60676;BME280;46716;38.014;-7.874;2022-12-07T01:03:59;99786.88;;;8.73;100.00
60676;BME280;46716;38.014;-7.874;2022-12-07T01:06:03;99772.25;;;8.66;100.00
60676;BME280;46716;38.014;-7.874;2022-12-07T01:08:06;99773.13;;;8.65;100.00
60676;BME280;46716;38.014;-7.874;2022-12-07T01:10:07;99784.47;;;8.67;100.00
60676;BME280;46716;38.014;-7.874;2022-12-07T01:12:08;99783.06;;;8.58;100.00
60676;BME280;46716;38.014;-7.874;2022-12-07T01:14:09;99773.34;;;8.60;100.00
60676;BME280;46716;38.014;-7.874;2022-12-07T01:16:12;99780.38;;;8.59;100.00
60676;BME280;46716;38.014;-7.874;2022-12-07T01:18:14;99756.31;;;8.46;100.00
60676;BME280;46716;38.014;-7.874;2022-12-07T01:20:15;99760.69;;;8.46;100.00
60676;BME280;46716;38.014;-7.874;2022-12-07T01:22:16;99756.34;;;8.45;100.00
60676;BME280;46716;38.014;-7.874;2022-12-07T01:24:17;99751.22;;;8.42;100.00
60676;BME280;46716;38.014;-7.874;2022-12-07T01:26:21;99754.91;;;8.38;100.00
60676;BME280;46716;38.014;-7.874;2022-12-07T01:28:23;99768.09;;;8.36;100.00
60676;BME280;46716;38.014;-7.874;2022-12-07T01:30:24;99757.00;;;8.28;100.00
60676;BME280;46716;38.014;-7.874;2022-12-07T01:32:25;99754.53;;;8.23;100.00
60676;BME280;46716;38.014;-7.874;2022-12-07T01:34:28;99739.16;;;8.14;100.00
60676;BME280;46716;38.014;-7.874;2022-12-07T01:36:35;99762.38;;;8.25;100.00
60676;BME280;46716;38.014;-7.874;2022-12-07T01:38:36;99748.44;;;8.22;100.00
60676;BME280;46716;38.014;-7.874;2022-12-07T01:40:37;99738.94;;;8.18;100.00
60676;BME280;46716;38.014;-7.874;2022-12-07T01:42:38;99728.69;;;8.12;100.00
60676;BME280;46716;38.014;-7.874;2022-12-07T01:47:17;99741.56;;;8.18;100.00
60676;BME280;46716;38.014;-7.874;2022-12-07T01:49:41;99745.25;;;8.14;100.00
60676;BME280;46716;38.014;-7.874;2022-12-07T01:51:45;99740.47;;;8.02;100.00
60676;BME280;46716;38.014;-7.874;2022-12-07T01:53:47;99743.75;;;8.07;100.00
60676;BME280;46716;38.014;-7.874;2022-12-07T01:55:52;99740.41;;;8.03;100.00
60676;BME280;46716;38.014;-7.874;2022-12-07T01:57:54;99743.59;;;8.12;100.00
60676;BME280;46716;38.014;-7.874;2022-12-07T01:59:56;99744.53;;;8.10;100.00
60676;BME280;46716;38.014;-7.874;2022-12-07T02:01:57;99732.88;;;7.94;100.00
60676;BME280;46716;38.014;-7.874;2022-12-07T02:03:58;99751.94;;;7.99;100.00
60676;BME280;46716;38.014;-7.874;2022-12-07T02:05:59;99742.56;;;7.92;100.00
60676;BME280;46716;38.014;-7.874;2022-12-07T02:08:01;99748.63;;;7.94;100.00
60676;BME280;46716;38.014;-7.874;2022-12-07T02:10:18;99744.03;;;7.99;100.00
60676;BME280;46716;38.014;-7.874;2022-12-07T02:12:20;99739.16;;;7.90;100.00
60676;BME280;46716;38.014;-7.874;2022-12-07T02:14:22;99738.25;;;7.91;100.00
60676;BME280;46716;38.014;-7.874;2022-12-07T02:28:31;99726.53;;;7.76;100.00
60676;BME280;46716;38.014;-7.874;2022-12-07T02:30:36;99732.47;;;7.81;100.00
60676;BME280;46716;38.014;-7.874;2022-12-07T02:33:04;99728.16;;;7.78;100.00
60676;BME280;46716;38.014;-7.874;2022-12-07T02:35:22;99721.31;;;7.74;100.00
60676;BME280;46716;38.014;-7.874;2022-12-07T02:37:55;99714.41;;;7.71;100.00
60676;BME280;46716;38.014;-7.874;2022-12-07T02:40:12;99721.53;;;7.68;100.00
60676;BME280;46716;38.014;-7.874;2022-12-07T02:42:21;99700.81;;;7.60;100.00
60676;BME280;46716;38.014;-7.874;2022-12-07T02:44:26;99714.81;;;7.61;100.00
60676;BME280;46716;38.014;-7.874;2022-12-07T02:46:34;99713.22;;;7.56;100.00
60676;BME280;46716;38.014;-7.874;2022-12-07T02:48:38;99720.28;;;7.54;100.00
60676;BME280;46716;38.014;-7.874;2022-12-07T02:50:50;99727.38;;;7.52;100.00
60676;BME280;46716;38.014;-7.874;2022-12-07T02:52:52;99720.53;;;7.48;100.00
60676;BME280;46716;38.014;-7.874;2022-12-07T02:54:52;99720.38;;;7.51;100.00
60676;BME280;46716;38.014;-7.874;2022-12-07T02:57:16;99717.75;;;7.51;100.00
60676;BME280;46716;38.014;-7.874;2022-12-07T03:03:47;99713.53;;;7.47;100.00
60676;BME280;46716;38.014;-7.874;2022-12-07T03:08:02;99716.22;;;7.45;100.00
60676;BME280;46716;38.014;-7.874;2022-12-07T03:12:32;99708.50;;;7.41;100.00
60676;BME280;46716;38.014;-7.874;2022-12-07T03:14:42;99699.78;;;7.40;100.00
60676;BME280;46716;38.014;-7.874;2022-12-07T03:16:58;99686.81;;;7.36;100.00
60676;BME280;46716;38.014;-7.874;2022-12-07T03:19:07;99689.22;;;7.42;100.00
60676;BME280;46716;38.014;-7.874;2022-12-07T03:21:18;99682.34;;;7.38;100.00
60676;BME280;46716;38.014;-7.874;2022-12-07T03:23:21;99675.28;;;7.40;100.00
60676;BME280;46716;38.014;-7.874;2022-12-07T03:25:25;99674.13;;;7.47;100.00
60676;BME280;46716;38.014;-7.874;2022-12-07T03:27:35;99687.66;;;7.60;100.00
60676;BME280;46716;38.014;-7.874;2022-12-07T03:32:00;99687.88;;;7.55;100.00
60676;BME280;46716;38.014;-7.874;2022-12-07T03:34:12;99689.06;;;7.46;100.00
60676;BME280;46716;38.014;-7.874;2022-12-07T03:36:21;99686.69;;;7.39;100.00
60676;BME280;46716;38.014;-7.874;2022-12-07T03:38:31;99678.94;;;7.36;100.00
60676;BME280;46716;38.014;-7.874;2022-12-07T03:40:45;99677.50;;;7.27;100.00
60676;BME280;46716;38.014;-7.874;2022-12-07T03:42:48;99685.47;;;7.24;100.00
60676;BME280;46716;38.014;-7.874;2022-12-07T03:44:50;99680.28;;;7.22;100.00
60676;BME280;46716;38.014;-7.874;2022-12-07T03:49:23;99676.69;;;7.25;100.00
60676;BME280;46716;38.014;-7.874;2022-12-07T03:51:37;99654.84;;;7.24;100.00
60676;BME280;46716;38.014;-7.874;2022-12-07T03:54:02;99648.78;;;7.22;100.00
60676;BME280;46716;38.014;-7.874;2022-12-07T03:56:08;99659.94;;;7.27;100.00
60676;BME280;46716;38.014;-7.874;2022-12-07T03:58:13;99664.16;;;7.33;100.00
60676;BME280;46716;38.014;-7.874;2022-12-07T04:00:15;99676.56;;;7.28;100.00
60676;BME280;46716;38.014;-7.874;2022-12-07T04:02:16;99649.00;;;7.16;100.00
60676;BME280;46716;38.014;-7.874;2022-12-07T04:04:18;99637.72;;;7.14;100.00
60676;BME280;46716;38.014;-7.874;2022-12-07T04:06:19;99636.78;;;7.15;100.00
60676;BME280;46716;38.014;-7.874;2022-12-07T04:08:20;99653.09;;;7.23;100.00
60676;BME280;46716;38.014;-7.874;2022-12-07T04:10:21;99642.03;;;7.15;100.00
60676;BME280;46716;38.014;-7.874;2022-12-07T04:12:22;99653.16;;;7.21;100.00
60676;BME280;46716;38.014;-7.874;2022-12-07T04:14:23;99659.34;;;7.20;100.00
60676;BME280;46716;38.014;-7.874;2022-12-07T04:16:24;99645.84;;;7.06;100.00
60676;BME280;46716;38.014;-7.874;2022-12-07T04:18:25;99653.56;;;7.11;100.00
60676;BME280;46716;38.014;-7.874;2022-12-07T04:20:26;99645.75;;;7.09;100.00
60676;BME280;46716;38.014;-7.874;2022-12-07T04:22:27;99657.94;;;7.10;100.00
60676;BME280;46716;38.014;-7.874;2022-12-07T04:24:28;99668.56;;;7.07;100.00
60676;BME280;46716;38.014;-7.874;2022-12-07T04:26:29;99657.75;;;6.91;100.00
60676;BME280;46716;38.014;-7.874;2022-12-07T04:28:30;99668.91;;;6.96;100.00
60676;BME280;46716;38.014;-7.874;2022-12-07T04:30:31;99656.91;;;6.89;100.00
60676;BME280;46716;38.014;-7.874;2022-12-07T04:32:32;99647.59;;;6.80;100.00
60676;BME280;46716;38.014;-7.874;2022-12-07T04:34:34;99644.25;;;6.76;100.00
60676;BME280;46716;38.014;-7.874;2022-12-07T04:36:35;99629.63;;;6.69;100.00
60676;BME280;46716;38.014;-7.874;2022-12-07T04:38:36;99631.44;;;6.67;100.00
60676;BME280;46716;38.014;-7.874;2022-12-07T04:40:37;99630.31;;;6.74;100.00
60676;BME280;46716;38.014;-7.874;2022-12-07T04:42:38;99627.69;;;6.74;100.00
60676;BME280;46716;38.014;-7.874;2022-12-07T04:44:39;99615.50;;;6.73;100.00
60676;BME280;46716;38.014;-7.874;2022-12-07T04:46:41;99627.22;;;6.88;100.00
60676;BME280;46716;38.014;-7.874;2022-12-07T04:48:42;99628.06;;;6.89;100.00
60676;BME280;46716;38.014;-7.874;2022-12-07T04:50:43;99622.91;;;6.86;100.00
60676;BME280;46716;38.014;-7.874;2022-12-07T04:52:44;99619.41;;;6.87;100.00
60676;BME280;46716;38.014;-7.874;2022-12-07T04:54:45;99632.28;;;6.93;100.00
60676;BME280;46716;38.014;-7.874;2022-12-07T04:56:46;99629.03;;;6.86;100.00
60676;BME280;46716;38.014;-7.874;2022-12-07T04:58:47;99628.13;;;6.87;100.00
60676;BME280;46716;38.014;-7.874;2022-12-07T05:00:48;99621.09;;;6.88;100.00
60676;BME280;46716;38.014;-7.874;2022-12-07T05:02:49;99623.53;;;6.94;100.00
60676;BME280;46716;38.014;-7.874;2022-12-07T05:04:50;99606.75;;;6.98;100.00
60676;BME280;46716;38.014;-7.874;2022-12-07T05:06:51;99613.22;;;7.13;100.00
60676;BME280;46716;38.014;-7.874;2022-12-07T05:08:52;99596.19;;;7.00;100.00
60676;BME280;46716;38.014;-7.874;2022-12-07T05:10:53;99599.38;;;7.08;100.00
60676;BME280;46716;38.014;-7.874;2022-12-07T05:12:54;99594.31;;;7.03;100.00
60676;BME280;46716;38.014;-7.874;2022-12-07T05:14:55;99583.94;;;7.00;100.00
60676;BME280;46716;38.014;-7.874;2022-12-07T05:16:55;99596.56;;;6.89;100.00
60676;BME280;46716;38.014;-7.874;2022-12-07T05:18:57;99607.72;;;6.95;100.00
60676;BME280;46716;38.014;-7.874;2022-12-07T05:20:58;99591.59;;;6.81;100.00
60676;BME280;46716;38.014;-7.874;2022-12-07T05:22:59;99599.59;;;6.78;100.00
60676;BME280;46716;38.014;-7.874;2022-12-07T05:25:00;99579.78;;;6.69;100.00
60676;BME280;46716;38.014;-7.874;2022-12-07T05:27:01;99589.94;;;6.78;100.00
60676;BME280;46716;38.014;-7.874;2022-12-07T05:29:02;99586.88;;;6.91;100.00
60676;BME280;46716;38.014;-7.874;2022-12-07T05:31:03;99558.34;;;6.81;100.00
60676;BME280;46716;38.014;-7.874;2022-12-07T05:33:04;99586.19;;;6.86;100.00
60676;BME280;46716;38.014;-7.874;2022-12-07T05:35:05;99586.47;;;6.78;100.00
60676;BME280;46716;38.014;-7.874;2022-12-07T05:37:07;99596.25;;;6.73;100.00
60676;BME280;46716;38.014;-7.874;2022-12-07T05:39:10;99587.06;;;6.61;100.00
60676;BME280;46716;38.014;-7.874;2022-12-07T05:41:14;99599.03;;;6.68;100.00
60676;BME280;46716;38.014;-7.874;2022-12-07T05:43:33;99588.69;;;6.63;100.00
60676;BME280;46716;38.014;-7.874;2022-12-07T05:45:34;99583.84;;;6.52;100.00
60676;BME280;46716;38.014;-7.874;2022-12-07T05:47:36;99599.72;;;6.48;100.00
60676;BME280;46716;38.014;-7.874;2022-12-07T05:49:37;99589.41;;;6.43;100.00
60676;BME280;46716;38.014;-7.874;2022-12-07T05:51:38;99588.81;;;6.35;100.00
60676;BME280;46716;38.014;-7.874;2022-12-07T05:53:39;99599.53;;;6.27;100.00
60676;BME280;46716;38.014;-7.874;2022-12-07T05:55:39;99591.00;;;6.20;100.00
60676;BME280;46716;38.014;-7.874;2022-12-07T05:57:40;99593.72;;;6.17;100.00
60676;BME280;46716;38.014;-7.874;2022-12-07T06:00:03;99587.66;;;6.16;100.00
60676;BME280;46716;38.014;-7.874;2022-12-07T06:02:14;99601.41;;;6.23;100.00
60676;BME280;46716;38.014;-7.874;2022-12-07T06:04:15;99595.59;;;6.13;100.00
60676;BME280;46716;38.014;-7.874;2022-12-07T06:06:16;99582.66;;;6.09;100.00
60676;BME280;46716;38.014;-7.874;2022-12-07T06:08:17;99594.59;;;6.17;100.00
60676;BME280;46716;38.014;-7.874;2022-12-07T06:10:18;99583.69;;;6.03;100.00
60676;BME280;46716;38.014;-7.874;2022-12-07T06:12:19;99587.31;;;5.99;100.00
60676;BME280;46716;38.014;-7.874;2022-12-07T06:14:35;99582.41;;;5.88;100.00
60676;BME280;46716;38.014;-7.874;2022-12-07T06:16:36;99585.75;;;5.91;100.00
60676;BME280;46716;38.014;-7.874;2022-12-07T06:18:37;99577.75;;;5.96;100.00
60676;BME280;46716;38.014;-7.874;2022-12-07T06:20:38;99588.97;;;6.01;100.00
60676;BME280;46716;38.014;-7.874;2022-12-07T06:22:38;99582.13;;;5.97;100.00
60676;BME280;46716;38.014;-7.874;2022-12-07T06:24:40;99574.50;;;5.89;100.00
60676;BME280;46716;38.014;-7.874;2022-12-07T06:26:41;99583.09;;;5.93;100.00
60676;BME280;46716;38.014;-7.874;2022-12-07T06:28:42;99574.69;;;5.83;100.00
60676;BME280;46716;38.014;-7.874;2022-12-07T06:30:43;99575.56;;;5.84;100.00
60676;BME280;46716;38.014;-7.874;2022-12-07T06:32:44;99578.78;;;5.92;100.00
60676;BME280;46716;38.014;-7.874;2022-12-07T06:34:45;99573.81;;;5.82;100.00
60676;BME280;46716;38.014;-7.874;2022-12-07T06:36:48;99587.56;;;5.91;100.00
60676;BME280;46716;38.014;-7.874;2022-12-07T06:38:52;99585.72;;;5.93;100.00
60676;BME280;46716;38.014;-7.874;2022-12-07T06:40:53;99589.25;;;5.92;100.00
60676;BME280;46716;38.014;-7.874;2022-12-07T06:42:55;99603.00;;;6.00;100.00
60676;BME280;46716;38.014;-7.874;2022-12-07T06:44:55;99589.25;;;5.92;100.00
60676;BME280;46716;38.014;-7.874;2022-12-07T06:46:56;99581.69;;;5.82;100.00
60676;BME280;46716;38.014;-7.874;2022-12-07T06:48:57;99593.84;;;5.85;100.00
60676;BME280;46716;38.014;-7.874;2022-12-07T06:50:59;99594.50;;;5.92;100.00
60676;BME280;46716;38.014;-7.874;2022-12-07T06:53:00;99591.72;;;5.97;100.00
60676;BME280;46716;38.014;-7.874;2022-12-07T06:55:01;99582.44;;;5.86;100.00
60676;BME280;46716;38.014;-7.874;2022-12-07T06:57:02;99587.50;;;5.92;100.00
60676;BME280;46716;38.014;-7.874;2022-12-07T06:59:03;99580.78;;;5.84;100.00
60676;BME280;46716;38.014;-7.874;2022-12-07T07:01:14;99599.59;;;5.97;100.00
60676;BME280;46716;38.014;-7.874;2022-12-07T07:03:17;99596.88;;;6.00;100.00
60676;BME280;46716;38.014;-7.874;2022-12-07T07:05:18;99580.28;;;5.99;100.00
60676;BME280;46716;38.014;-7.874;2022-12-07T07:07:22;99594.94;;;6.06;100.00
60676;BME280;46716;38.014;-7.874;2022-12-07T07:09:23;99587.84;;;6.10;100.00
60676;BME280;46716;38.014;-7.874;2022-12-07T07:11:24;99577.31;;;6.12;100.00
60676;BME280;46716;38.014;-7.874;2022-12-07T07:13:26;99583.19;;;6.18;100.00
60676;BME280;46716;38.014;-7.874;2022-12-07T07:15:27;99583.25;;;6.17;100.00
60676;BME280;46716;38.014;-7.874;2022-12-07T07:17:28;99565.63;;;6.22;100.00
60676;BME280;46716;38.014;-7.874;2022-12-07T07:19:30;99546.66;;;6.14;100.00
60676;BME280;46716;38.014;-7.874;2022-12-07T07:21:31;99559.41;;;6.25;100.00
60676;BME280;46716;38.014;-7.874;2022-12-07T07:23:32;99531.69;;;6.17;100.00
60676;BME280;46716;38.014;-7.874;2022-12-07T07:25:33;99538.13;;;6.34;100.00
60676;BME280;46716;38.014;-7.874;2022-12-07T07:27:34;99526.00;;;6.31;100.00
60676;BME280;46716;38.014;-7.874;2022-12-07T07:29:35;99540.81;;;6.32;100.00
60676;BME280;46716;38.014;-7.874;2022-12-07T07:31:36;99557.78;;;6.48;100.00
60676;BME280;46716;38.014;-7.874;2022-12-07T07:33:37;99554.41;;;6.44;100.00
60676;BME280;46716;38.014;-7.874;2022-12-07T07:35:38;99558.63;;;6.48;100.00
60676;BME280;46716;38.014;-7.874;2022-12-07T07:37:40;99554.50;;;6.41;100.00
60676;BME280;46716;38.014;-7.874;2022-12-07T07:39:41;99550.16;;;6.40;100.00
60676;BME280;46716;38.014;-7.874;2022-12-07T07:41:42;99543.06;;;6.43;100.00
60676;BME280;46716;38.014;-7.874;2022-12-07T07:43:47;99549.91;;;6.48;100.00
60676;BME280;46716;38.014;-7.874;2022-12-07T07:45:48;99553.59;;;6.42;100.00
60676;BME280;46716;38.014;-7.874;2022-12-07T07:47:50;99567.59;;;6.41;100.00
60676;BME280;46716;38.014;-7.874;2022-12-07T07:49:51;99561.63;;;6.37;100.00
60676;BME280;46716;38.014;-7.874;2022-12-07T07:51:52;99577.03;;;6.47;100.00
60676;BME280;46716;38.014;-7.874;2022-12-07T07:53:53;99576.91;;;6.50;100.00
60676;BME280;46716;38.014;-7.874;2022-12-07T07:55:54;99554.66;;;6.36;100.00
60676;BME280;46716;38.014;-7.874;2022-12-07T07:57:55;99568.22;;;6.49;100.00
60676;BME280;46716;38.014;-7.874;2022-12-07T07:59:56;99555.06;;;6.51;100.00
60676;BME280;46716;38.014;-7.874;2022-12-07T08:01:57;99557.28;;;6.62;100.00
60676;BME280;46716;38.014;-7.874;2022-12-07T08:03:58;99535.81;;;6.50;100.00
60676;BME280;46716;38.014;-7.874;2022-12-07T08:05:59;99552.91;;;6.62;100.00
60676;BME280;46716;38.014;-7.874;2022-12-07T08:08:00;99532.91;;;6.60;100.00
60676;BME280;46716;38.014;-7.874;2022-12-07T08:10:01;99547.19;;;6.76;100.00
60676;BME280;46716;38.014;-7.874;2022-12-07T08:12:03;99531.66;;;6.70;100.00
60676;BME280;46716;38.014;-7.874;2022-12-07T08:14:04;99537.41;;;6.80;100.00
60676;BME280;46716;38.014;-7.874;2022-12-07T08:16:08;99548.44;;;6.90;100.00
60676;BME280;46716;38.014;-7.874;2022-12-07T08:18:13;99543.88;;;6.95;100.00
60676;BME280;46716;38.014;-7.874;2022-12-07T08:20:14;99540.91;;;7.04;100.00
60676;BME280;46716;38.014;-7.874;2022-12-07T08:22:15;99550.50;;;7.05;100.00
60676;BME280;46716;38.014;-7.874;2022-12-07T08:24:17;99564.94;;;7.17;100.00
60676;BME280;46716;38.014;-7.874;2022-12-07T08:26:18;99564.66;;;7.25;100.00
60676;BME280;46716;38.014;-7.874;2022-12-07T08:28:19;99569.50;;;7.36;100.00
60676;BME280;46716;38.014;-7.874;2022-12-07T08:30:21;99565.84;;;7.40;100.00
60676;BME280;46716;38.014;-7.874;2022-12-07T08:32:22;99552.94;;;7.34;100.00
60676;BME280;46716;38.014;-7.874;2022-12-07T08:34:23;99561.53;;;7.38;100.00
60676;BME280;46716;38.014;-7.874;2022-12-07T08:36:24;99569.19;;;7.44;100.00
60676;BME280;46716;38.014;-7.874;2022-12-07T08:38:25;99581.06;;;7.54;100.00
60676;BME280;46716;38.014;-7.874;2022-12-07T08:40:27;99586.25;;;7.56;100.00
60676;BME280;46716;38.014;-7.874;2022-12-07T08:42:28;99599.78;;;7.69;100.00
60676;BME280;46716;38.014;-7.874;2022-12-07T08:44:30;99588.34;;;7.70;100.00
60676;BME280;46716;38.014;-7.874;2022-12-07T08:46:36;99598.41;;;7.82;100.00
60676;BME280;46716;38.014;-7.874;2022-12-07T08:48:46;99588.47;;;7.89;100.00
60676;BME280;46716;38.014;-7.874;2022-12-07T08:50:48;99567.81;;;7.80;100.00
60676;BME280;46716;38.014;-7.874;2022-12-07T08:52:54;99572.53;;;7.71;100.00
60676;BME280;46716;38.014;-7.874;2022-12-07T08:54:55;99584.34;;;7.83;100.00
60676;BME280;46716;38.014;-7.874;2022-12-07T08:56:57;99591.59;;;7.99;100.00
60676;BME280;46716;38.014;-7.874;2022-12-07T08:58:58;99579.25;;;8.01;100.00
60676;BME280;46716;38.014;-7.874;2022-12-07T09:00:59;99590.41;;;8.06;100.00
60676;BME280;46716;38.014;-7.874;2022-12-07T09:03:00;99596.88;;;8.20;100.00
60676;BME280;46716;38.014;-7.874;2022-12-07T09:05:01;99580.41;;;8.16;100.00
60676;BME280;46716;38.014;-7.874;2022-12-07T09:07:02;99589.56;;;8.28;100.00
60676;BME280;46716;38.014;-7.874;2022-12-07T09:09:04;99595.16;;;8.41;100.00
60676;BME280;46716;38.014;-7.874;2022-12-07T09:11:05;99575.75;;;8.44;100.00
60676;BME280;46716;38.014;-7.874;2022-12-07T09:13:06;99583.97;;;8.58;100.00
60676;BME280;46716;38.014;-7.874;2022-12-07T09:15:08;99575.34;;;8.55;100.00
60676;BME280;46716;38.014;-7.874;2022-12-07T09:17:11;99563.69;;;8.60;100.00
60676;BME280;46716;38.014;-7.874;2022-12-07T09:19:12;99558.56;;;8.57;100.00
60676;BME280;46716;38.014;-7.874;2022-12-07T09:21:14;99571.25;;;8.68;100.00
60676;BME280;46716;38.014;-7.874;2022-12-07T09:23:15;99569.63;;;8.66;100.00
60676;BME280;46716;38.014;-7.874;2022-12-07T09:25:16;99568.38;;;8.54;100.00
60676;BME280;46716;38.014;-7.874;2022-12-07T09:27:18;99544.00;;;8.48;100.00
60676;BME280;46716;38.014;-7.874;2022-12-07T09:29:19;99557.16;;;8.69;100.00
60676;BME280;46716;38.014;-7.874;2022-12-07T09:31:22;99546.69;;;8.89;100.00
60676;BME280;46716;38.014;-7.874;2022-12-07T09:33:26;99557.97;;;9.11;100.00
60676;BME280;46716;38.014;-7.874;2022-12-07T09:35:27;99545.28;;;9.20;100.00
60676;BME280;46716;38.014;-7.874;2022-12-07T09:37:28;99542.75;;;9.38;100.00
60676;BME280;46716;38.014;-7.874;2022-12-07T09:39:30;99555.13;;;9.55;100.00
60676;BME280;46716;38.014;-7.874;2022-12-07T09:41:32;99563.44;;;9.65;100.00
60676;BME280;46716;38.014;-7.874;2022-12-07T09:43:35;99558.59;;;9.74;100.00
60676;BME280;46716;38.014;-7.874;2022-12-07T09:45:38;99550.78;;;9.91;100.00
60676;BME280;46716;38.014;-7.874;2022-12-07T09:47:39;99553.75;;;10.02;100.00
60676;BME280;46716;38.014;-7.874;2022-12-07T09:49:40;99537.75;;;10.05;100.00
60676;BME280;46716;38.014;-7.874;2022-12-07T09:51:42;99531.25;;;10.12;100.00
60676;BME280;46716;38.014;-7.874;2022-12-07T09:53:44;99537.53;;;10.28;100.00
60676;BME280;46716;38.014;-7.874;2022-12-07T09:55:45;99549.34;;;10.38;100.00
60676;BME280;46716;38.014;-7.874;2022-12-07T09:57:47;99543.06;;;10.41;100.00
60676;BME280;46716;38.014;-7.874;2022-12-07T09:59:49;99537.50;;;10.47;100.00
60676;BME280;46716;38.014;-7.874;2022-12-07T10:01:50;99551.53;;;10.65;100.00
60676;BME280;46716;38.014;-7.874;2022-12-07T10:03:55;99568.97;;;10.85;100.00
60676;BME280;46716;38.014;-7.874;2022-12-07T10:05:59;99563.69;;;10.85;100.00
60676;BME280;46716;38.014;-7.874;2022-12-07T10:08:01;99566.78;;;10.94;100.00
60676;BME280;46716;38.014;-7.874;2022-12-07T10:10:04;99549.63;;;10.85;100.00
60676;BME280;46716;38.014;-7.874;2022-12-07T10:12:09;99557.47;;;10.86;100.00
60676;BME280;46716;38.014;-7.874;2022-12-07T10:14:15;99536.91;;;10.75;100.00
60676;BME280;46716;38.014;-7.874;2022-12-07T10:20:27;99554.38;;;10.78;100.00
60676;BME280;46716;38.014;-7.874;2022-12-07T10:22:29;99553.22;;;10.84;100.00
60676;BME280;46716;38.014;-7.874;2022-12-07T10:24:31;99540.84;;;10.84;100.00
60676;BME280;46716;38.014;-7.874;2022-12-07T10:26:53;99533.72;;;10.86;100.00
60676;BME280;46716;38.014;-7.874;2022-12-07T10:28:56;99543.28;;;11.05;100.00
60676;BME280;46716;38.014;-7.874;2022-12-07T10:31:02;99545.19;;;11.19;100.00
60676;BME280;46716;38.014;-7.874;2022-12-07T10:33:27;99546.88;;;11.36;100.00
60676;BME280;46716;38.014;-7.874;2022-12-07T10:35:30;99532.59;;;11.41;100.00
60676;BME280;46716;38.014;-7.874;2022-12-07T10:37:40;99541.97;;;11.62;100.00
60676;BME280;46716;38.014;-7.874;2022-12-07T10:39:51;99549.97;;;11.77;100.00
60676;BME280;46716;38.014;-7.874;2022-12-07T10:42:05;99549.50;;;12.01;100.00
60676;BME280;46716;38.014;-7.874;2022-12-07T10:44:20;99530.44;;;12.26;100.00
60676;BME280;46716;38.014;-7.874;2022-12-07T10:46:43;99521.41;;;12.60;100.00
60676;BME280;46716;38.014;-7.874;2022-12-07T10:48:53;99520.50;;;12.90;100.00
60676;BME280;46716;38.014;-7.874;2022-12-07T10:51:52;99514.63;;;12.85;100.00
60676;BME280;46716;38.014;-7.874;2022-12-07T10:53:44;99518.28;;;13.11;100.00
60676;BME280;46716;38.014;-7.874;2022-12-07T11:00:11;99505.22;;;13.65;100.00
60676;BME280;46716;38.014;-7.874;2022-12-07T11:02:41;99527.13;;;13.82;100.00
60676;BME280;46716;38.014;-7.874;2022-12-07T11:10:26;99506.22;;;13.77;100.00
60676;BME280;46716;38.014;-7.874;2022-12-07T11:13:19;99496.88;;;13.71;100.00
60676;BME280;46716;38.014;-7.874;2022-12-07T11:20:28;99498.53;;;13.45;100.00
60676;BME280;46716;38.014;-7.874;2022-12-07T11:25:35;99478.00;;;13.06;100.00
60676;BME280;46716;38.014;-7.874;2022-12-07T11:30:03;99476.88;;;12.81;100.00
60676;BME280;46716;38.014;-7.874;2022-12-07T11:32:34;99464.94;;;12.74;100.00
60676;BME280;46716;38.014;-7.874;2022-12-07T11:35:05;99448.59;;;12.67;100.00
60676;BME280;46716;38.014;-7.874;2022-12-07T11:37:19;99443.94;;;12.71;100.00
60676;BME280;46716;38.014;-7.874;2022-12-07T11:45:44;99430.97;;;12.95;100.00